sensor_id;sensor_type;location;lat;lon;timestamp;temperature;humidity
65836;SHT30;52595;51.608;7.216;2023-09-12T00:01:04;19.49;93.47
65836;SHT30;52595;51.608;7.216;2023-09-12T00:03:31;19.48;93.93
65836;SHT30;52595;51.608;7.216;2023-09-12T00:05:58;19.42;94.05
65836;SHT30;52595;51.608;7.216;2023-09-12T00:08:25;19.35;94.39
65836;SHT30;52595;51.608;7.216;2023-09-12T00:11:07;19.32;94.55
65836;SHT30;52595;51.608;7.216;2023-09-12T00:13:37;19.28;94.88
65836;SHT30;52595;51.608;7.216;2023-09-12T00:16:02;19.23;95.06
65836;SHT30;52595;51.608;7.216;2023-09-12T00:18:28;19.19;95.45
65836;SHT30;52595;51.608;7.216;2023-09-12T00:20:53;19.15;95.49
65836;SHT30;52595;51.608;7.216;2023-09-12T00:23:21;19.15;95.57
65836;SHT30;52595;51.608;7.216;2023-09-12T00:25:46;19.11;95.66
65836;SHT30;52595;51.608;7.216;2023-09-12T00:28:12;19.11;95.99
65836;SHT30;52595;51.608;7.216;2023-09-12T00:30:37;19.09;96.16
65836;SHT30;52595;51.608;7.216;2023-09-12T00:33:03;19.09;96.22
65836;SHT30;52595;51.608;7.216;2023-09-12T00:35:28;19.08;96.25
65836;SHT30;52595;51.608;7.216;2023-09-12T00:37:53;19.04;96.21
65836;SHT30;52595;51.608;7.216;2023-09-12T00:40:19;19.02;96.33
65836;SHT30;52595;51.608;7.216;2023-09-12T00:42:44;19.14;96.44
65836;SHT30;52595;51.608;7.216;2023-09-12T00:45:10;19.23;96.13
65836;SHT30;52595;51.608;7.216;2023-09-12T00:47:35;19.32;95.88
65836;SHT30;52595;51.608;7.216;2023-09-12T00:50:02;19.40;95.79
65836;SHT30;52595;51.608;7.216;2023-09-12T00:52:30;19.60;95.07
65836;SHT30;52595;51.608;7.216;2023-09-12T00:54:56;19.76;94.24
65836;SHT30;52595;51.608;7.216;2023-09-12T00:57:21;19.79;94.02
65836;SHT30;52595;51.608;7.216;2023-09-12T00:59:48;19.84;94.18
65836;SHT30;52595;51.608;7.216;2023-09-12T01:02:14;19.90;94.31
65836;SHT30;52595;51.608;7.216;2023-09-12T01:04:40;19.89;94.58
65836;SHT30;52595;51.608;7.216;2023-09-12T01:07:06;19.89;94.70
65836;SHT30;52595;51.608;7.216;2023-09-12T01:09:32;19.83;94.98
65836;SHT30;52595;51.608;7.216;2023-09-12T01:11:59;19.86;95.09
65836;SHT30;52595;51.608;7.216;2023-09-12T01:14:26;19.86;95.18
65836;SHT30;52595;51.608;7.216;2023-09-12T01:16:52;19.87;95.14
65836;SHT30;52595;51.608;7.216;2023-09-12T01:19:18;19.89;94.85
65836;SHT30;52595;51.608;7.216;2023-09-12T01:22:06;19.90;94.49
65836;SHT30;52595;51.608;7.216;2023-09-12T01:25:29;20.03;94.43
65836;SHT30;52595;51.608;7.216;2023-09-12T01:27:51;20.03;94.85
65836;SHT30;52595;51.608;7.216;2023-09-12T01:30:20;19.93;95.38
65836;SHT30;52595;51.608;7.216;2023-09-12T01:32:46;19.87;95.34
65836;SHT30;52595;51.608;7.216;2023-09-12T01:35:15;19.77;95.75
65836;SHT30;52595;51.608;7.216;2023-09-12T01:37:40;19.69;96.15
65836;SHT30;52595;51.608;7.216;2023-09-12T01:40:06;19.65;96.27
65836;SHT30;52595;51.608;7.216;2023-09-12T01:42:37;19.58;96.49
65836;SHT30;52595;51.608;7.216;2023-09-12T01:45:05;19.50;96.76
65836;SHT30;52595;51.608;7.216;2023-09-12T01:47:33;19.46;96.78
65836;SHT30;52595;51.608;7.216;2023-09-12T01:50:00;19.42;96.69
65836;SHT30;52595;51.608;7.216;2023-09-12T01:52:26;19.39;96.66
65836;SHT30;52595;51.608;7.216;2023-09-12T01:54:52;19.36;96.75
65836;SHT30;52595;51.608;7.216;2023-09-12T01:57:19;19.35;96.75
65836;SHT30;52595;51.608;7.216;2023-09-12T01:59:51;19.33;96.97
65836;SHT30;52595;51.608;7.216;2023-09-12T02:02:17;19.26;97.03
65836;SHT30;52595;51.608;7.216;2023-09-12T02:05:07;19.22;97.22
65836;SHT30;52595;51.608;7.216;2023-09-12T02:07:37;19.19;97.40
65836;SHT30;52595;51.608;7.216;2023-09-12T02:10:02;19.28;97.45
65836;SHT30;52595;51.608;7.216;2023-09-12T02:12:29;19.32;97.03
65836;SHT30;52595;51.608;7.216;2023-09-12T02:14:55;19.36;96.75
65836;SHT30;52595;51.608;7.216;2023-09-12T02:17:20;19.45;96.53
65836;SHT30;52595;51.608;7.216;2023-09-12T02:19:47;19.50;96.33
65836;SHT30;52595;51.608;7.216;2023-09-12T02:22:13;19.55;96.33
65836;SHT30;52595;51.608;7.216;2023-09-12T02:24:38;19.60;96.34
65836;SHT30;52595;51.608;7.216;2023-09-12T02:27:04;19.66;96.29
65836;SHT30;52595;51.608;7.216;2023-09-12T02:29:29;19.66;96.18
65836;SHT30;52595;51.608;7.216;2023-09-12T02:31:56;19.67;96.18
65836;SHT30;52595;51.608;7.216;2023-09-12T02:34:21;19.65;96.14
65836;SHT30;52595;51.608;7.216;2023-09-12T02:36:47;19.65;96.26
65836;SHT30;52595;51.608;7.216;2023-09-12T02:39:12;19.60;96.93
65836;SHT30;52595;51.608;7.216;2023-09-12T02:41:37;19.48;97.78
65836;SHT30;52595;51.608;7.216;2023-09-12T02:44:03;19.22;99.99
65836;SHT30;52595;51.608;7.216;2023-09-12T02:46:28;19.14;99.99
65836;SHT30;52595;51.608;7.216;2023-09-12T02:48:54;19.09;99.99
65836;SHT30;52595;51.608;7.216;2023-09-12T02:51:19;19.01;99.99
65836;SHT30;52595;51.608;7.216;2023-09-12T02:53:44;18.92;99.99
65836;SHT30;52595;51.608;7.216;2023-09-12T02:56:10;18.88;99.99
65836;SHT30;52595;51.608;7.216;2023-09-12T02:58:35;18.89;99.99
65836;SHT30;52595;51.608;7.216;2023-09-12T03:01:00;18.89;99.99
65836;SHT30;52595;51.608;7.216;2023-09-12T03:03:28;18.99;99.99
65836;SHT30;52595;51.608;7.216;2023-09-12T03:06:01;18.98;99.99
65836;SHT30;52595;51.608;7.216;2023-09-12T03:08:30;18.96;99.99
65836;SHT30;52595;51.608;7.216;2023-09-12T03:10:55;18.91;99.99
65836;SHT30;52595;51.608;7.216;2023-09-12T03:13:23;18.87;99.99
65836;SHT30;52595;51.608;7.216;2023-09-12T03:15:49;18.85;99.99
65836;SHT30;52595;51.608;7.216;2023-09-12T03:18:14;18.83;99.99
65836;SHT30;52595;51.608;7.216;2023-09-12T03:20:40;18.75;99.99
65836;SHT30;52595;51.608;7.216;2023-09-12T03:23:05;18.81;99.99
65836;SHT30;52595;51.608;7.216;2023-09-12T03:25:36;18.85;99.99
65836;SHT30;52595;51.608;7.216;2023-09-12T03:28:02;18.85;99.99
65836;SHT30;52595;51.608;7.216;2023-09-12T03:30:28;18.79;99.99
65836;SHT30;52595;51.608;7.216;2023-09-12T03:32:53;18.77;99.99
65836;SHT30;52595;51.608;7.216;2023-09-12T03:35:18;18.71;99.99
65836;SHT30;52595;51.608;7.216;2023-09-12T03:37:44;18.64;99.99
65836;SHT30;52595;51.608;7.216;2023-09-12T03:40:10;18.60;99.99
65836;SHT30;52595;51.608;7.216;2023-09-12T03:42:36;18.60;99.99
65836;SHT30;52595;51.608;7.216;2023-09-12T03:45:02;18.57;99.99
65836;SHT30;52595;51.608;7.216;2023-09-12T03:47:28;18.58;99.99
65836;SHT30;52595;51.608;7.216;2023-09-12T03:49:54;18.54;99.99
65836;SHT30;52595;51.608;7.216;2023-09-12T03:52:19;18.54;99.99
65836;SHT30;52595;51.608;7.216;2023-09-12T03:54:44;18.48;99.99
65836;SHT30;52595;51.608;7.216;2023-09-12T03:57:10;18.45;99.99
65836;SHT30;52595;51.608;7.216;2023-09-12T03:59:35;18.43;99.99
65836;SHT30;52595;51.608;7.216;2023-09-12T04:02:02;18.38;99.99
65836;SHT30;52595;51.608;7.216;2023-09-12T04:04:30;18.37;99.99
65836;SHT30;52595;51.608;7.216;2023-09-12T04:06:56;18.33;99.99
65836;SHT30;52595;51.608;7.216;2023-09-12T04:09:21;18.27;99.99
65836;SHT30;52595;51.608;7.216;2023-09-12T04:11:46;18.24;99.99
65836;SHT30;52595;51.608;7.216;2023-09-12T04:14:13;18.16;99.99
65836;SHT30;52595;51.608;7.216;2023-09-12T04:16:39;18.17;99.99
65836;SHT30;52595;51.608;7.216;2023-09-12T04:19:04;18.12;99.99
65836;SHT30;52595;51.608;7.216;2023-09-12T04:21:30;18.09;99.99
65836;SHT30;52595;51.608;7.216;2023-09-12T04:23:55;18.07;99.99
65836;SHT30;52595;51.608;7.216;2023-09-12T04:26:20;18.06;99.99
65836;SHT30;52595;51.608;7.216;2023-09-12T04:28:47;18.04;99.99
65836;SHT30;52595;51.608;7.216;2023-09-12T04:31:12;18.06;99.99
65836;SHT30;52595;51.608;7.216;2023-09-12T04:33:37;18.07;99.99
65836;SHT30;52595;51.608;7.216;2023-09-12T04:36:03;18.03;99.99
65836;SHT30;52595;51.608;7.216;2023-09-12T04:38:29;18.00;99.99
65836;SHT30;52595;51.608;7.216;2023-09-12T04:40:55;17.94;99.99
65836;SHT30;52595;51.608;7.216;2023-09-12T04:43:21;17.93;99.99
65836;SHT30;52595;51.608;7.216;2023-09-12T04:45:47;17.89;99.99
65836;SHT30;52595;51.608;7.216;2023-09-12T04:48:13;17.87;99.99
65836;SHT30;52595;51.608;7.216;2023-09-12T04:50:42;17.89;99.99
65836;SHT30;52595;51.608;7.216;2023-09-12T04:53:08;17.87;99.99
65836;SHT30;52595;51.608;7.216;2023-09-12T04:55:38;17.90;99.99
65836;SHT30;52595;51.608;7.216;2023-09-12T04:58:05;17.90;99.99
65836;SHT30;52595;51.608;7.216;2023-09-12T05:00:31;17.92;99.99
65836;SHT30;52595;51.608;7.216;2023-09-12T05:02:56;17.94;99.99
65836;SHT30;52595;51.608;7.216;2023-09-12T05:05:22;17.97;99.99
65836;SHT30;52595;51.608;7.216;2023-09-12T05:07:47;18.04;99.99
65836;SHT30;52595;51.608;7.216;2023-09-12T05:10:13;18.04;99.99
65836;SHT30;52595;51.608;7.216;2023-09-12T05:12:38;18.13;99.99
65836;SHT30;52595;51.608;7.216;2023-09-12T05:15:04;18.16;99.99
65836;SHT30;52595;51.608;7.216;2023-09-12T05:17:29;18.18;99.99
65836;SHT30;52595;51.608;7.216;2023-09-12T05:19:55;18.23;99.99
65836;SHT30;52595;51.608;7.216;2023-09-12T05:22:20;18.24;99.99
65836;SHT30;52595;51.608;7.216;2023-09-12T05:24:46;18.23;99.99
65836;SHT30;52595;51.608;7.216;2023-09-12T05:27:12;18.27;99.99
65836;SHT30;52595;51.608;7.216;2023-09-12T05:29:37;18.34;99.99
65836;SHT30;52595;51.608;7.216;2023-09-12T05:32:03;18.34;99.99
65836;SHT30;52595;51.608;7.216;2023-09-12T05:34:29;18.37;99.99
65836;SHT30;52595;51.608;7.216;2023-09-12T05:36:56;18.43;99.99
65836;SHT30;52595;51.608;7.216;2023-09-12T05:39:22;18.43;99.99
65836;SHT30;52595;51.608;7.216;2023-09-12T05:41:49;18.47;99.99
65836;SHT30;52595;51.608;7.216;2023-09-12T05:44:14;18.51;99.99
65836;SHT30;52595;51.608;7.216;2023-09-12T05:46:46;18.48;99.99
65836;SHT30;52595;51.608;7.216;2023-09-12T05:49:18;18.38;99.99
65836;SHT30;52595;51.608;7.216;2023-09-12T05:51:43;18.37;99.99
65836;SHT30;52595;51.608;7.216;2023-09-12T05:54:10;18.40;99.99
65836;SHT30;52595;51.608;7.216;2023-09-12T05:56:35;18.38;99.99
65836;SHT30;52595;51.608;7.216;2023-09-12T05:59:00;18.44;99.99
65836;SHT30;52595;51.608;7.216;2023-09-12T06:01:28;18.43;99.99
65836;SHT30;52595;51.608;7.216;2023-09-12T06:03:53;18.38;99.99
65836;SHT30;52595;51.608;7.216;2023-09-12T06:06:19;18.20;99.99
65836;SHT30;52595;51.608;7.216;2023-09-12T06:08:44;18.23;99.99
65836;SHT30;52595;51.608;7.216;2023-09-12T06:11:10;18.24;99.99
65836;SHT30;52595;51.608;7.216;2023-09-12T06:13:35;18.30;99.99
65836;SHT30;52595;51.608;7.216;2023-09-12T06:16:03;18.34;99.99
65836;SHT30;52595;51.608;7.216;2023-09-12T06:18:28;18.36;99.99
65836;SHT30;52595;51.608;7.216;2023-09-12T06:20:57;18.41;99.99
65836;SHT30;52595;51.608;7.216;2023-09-12T06:23:22;18.48;99.99
65836;SHT30;52595;51.608;7.216;2023-09-12T06:25:50;18.50;99.99
65836;SHT30;52595;51.608;7.216;2023-09-12T06:28:27;18.55;99.99
65836;SHT30;52595;51.608;7.216;2023-09-12T06:30:54;18.57;99.99
65836;SHT30;52595;51.608;7.216;2023-09-12T06:33:19;18.60;99.99
65836;SHT30;52595;51.608;7.216;2023-09-12T06:35:51;18.69;99.99
65836;SHT30;52595;51.608;7.216;2023-09-12T06:38:21;18.72;99.99
65836;SHT30;52595;51.608;7.216;2023-09-12T06:40:47;18.67;99.99
65836;SHT30;52595;51.608;7.216;2023-09-12T06:43:13;18.61;99.99
65836;SHT30;52595;51.608;7.216;2023-09-12T06:45:40;18.61;99.99
65836;SHT30;52595;51.608;7.216;2023-09-12T06:48:06;18.61;99.99
65836;SHT30;52595;51.608;7.216;2023-09-12T06:50:31;18.55;99.99
65836;SHT30;52595;51.608;7.216;2023-09-12T06:52:57;18.41;99.99
65836;SHT30;52595;51.608;7.216;2023-09-12T06:55:22;18.27;99.99
65836;SHT30;52595;51.608;7.216;2023-09-12T06:57:47;18.16;99.99
65836;SHT30;52595;51.608;7.216;2023-09-12T07:00:13;18.10;99.99
65836;SHT30;52595;51.608;7.216;2023-09-12T07:02:39;18.09;99.99
65836;SHT30;52595;51.608;7.216;2023-09-12T07:05:05;18.06;99.99
65836;SHT30;52595;51.608;7.216;2023-09-12T07:07:30;18.12;99.99
65836;SHT30;52595;51.608;7.216;2023-09-12T07:09:56;18.12;99.99
65836;SHT30;52595;51.608;7.216;2023-09-12T07:12:22;18.14;99.99
65836;SHT30;52595;51.608;7.216;2023-09-12T07:14:47;18.18;99.99
65836;SHT30;52595;51.608;7.216;2023-09-12T07:17:13;18.18;99.99
65836;SHT30;52595;51.608;7.216;2023-09-12T07:19:38;18.26;99.99
65836;SHT30;52595;51.608;7.216;2023-09-12T07:22:04;18.24;99.99
65836;SHT30;52595;51.608;7.216;2023-09-12T07:24:30;18.26;99.99
65836;SHT30;52595;51.608;7.216;2023-09-12T07:26:56;18.23;99.99
65836;SHT30;52595;51.608;7.216;2023-09-12T07:29:23;18.26;99.99
65836;SHT30;52595;51.608;7.216;2023-09-12T07:31:52;18.22;99.99
65836;SHT30;52595;51.608;7.216;2023-09-12T07:34:18;18.23;99.99
65836;SHT30;52595;51.608;7.216;2023-09-12T07:36:44;18.23;99.99
65836;SHT30;52595;51.608;7.216;2023-09-12T07:39:09;18.23;99.99
65836;SHT30;52595;51.608;7.216;2023-09-12T07:41:36;18.23;99.99
65836;SHT30;52595;51.608;7.216;2023-09-12T07:44:01;18.29;99.99
65836;SHT30;52595;51.608;7.216;2023-09-12T07:46:30;18.23;99.99
65836;SHT30;52595;51.608;7.216;2023-09-12T07:48:55;18.24;99.99
65836;SHT30;52595;51.608;7.216;2023-09-12T07:51:20;18.30;99.99
65836;SHT30;52595;51.608;7.216;2023-09-12T07:53:48;18.40;99.99
65836;SHT30;52595;51.608;7.216;2023-09-12T07:56:13;18.51;99.99
65836;SHT30;52595;51.608;7.216;2023-09-12T07:58:39;18.60;99.99
65836;SHT30;52595;51.608;7.216;2023-09-12T08:01:08;18.78;99.99
65836;SHT30;52595;51.608;7.216;2023-09-12T08:03:35;18.87;99.99
65836;SHT30;52595;51.608;7.216;2023-09-12T08:06:01;18.89;99.99
65836;SHT30;52595;51.608;7.216;2023-09-12T08:08:27;18.94;99.99
65836;SHT30;52595;51.608;7.216;2023-09-12T08:10:52;18.89;99.99
65836;SHT30;52595;51.608;7.216;2023-09-12T08:13:17;18.91;99.99
65836;SHT30;52595;51.608;7.216;2023-09-12T08:15:43;19.05;99.99
65836;SHT30;52595;51.608;7.216;2023-09-12T08:18:10;19.12;99.99
65836;SHT30;52595;51.608;7.216;2023-09-12T08:20:35;19.26;99.99
65836;SHT30;52595;51.608;7.216;2023-09-12T08:23:01;19.36;99.99
65836;SHT30;52595;51.608;7.216;2023-09-12T08:25:26;19.30;99.99
65836;SHT30;52595;51.608;7.216;2023-09-12T08:27:52;19.29;99.99
65836;SHT30;52595;51.608;7.216;2023-09-12T08:30:17;19.38;99.99
65836;SHT30;52595;51.608;7.216;2023-09-12T08:32:43;19.22;99.99
65836;SHT30;52595;51.608;7.216;2023-09-12T08:35:11;19.23;99.99
65836;SHT30;52595;51.608;7.216;2023-09-12T08:37:41;19.23;99.99
65836;SHT30;52595;51.608;7.216;2023-09-12T08:40:07;19.35;99.99
65836;SHT30;52595;51.608;7.216;2023-09-12T08:42:39;19.39;99.99
65836;SHT30;52595;51.608;7.216;2023-09-12T08:45:16;19.43;99.99
65836;SHT30;52595;51.608;7.216;2023-09-12T08:47:44;19.55;99.99
65836;SHT30;52595;51.608;7.216;2023-09-12T08:50:14;19.73;99.99
65836;SHT30;52595;51.608;7.216;2023-09-12T08:52:42;19.70;99.99
65836;SHT30;52595;51.608;7.216;2023-09-12T08:55:08;19.87;99.99
65836;SHT30;52595;51.608;7.216;2023-09-12T08:57:36;19.87;99.99
65836;SHT30;52595;51.608;7.216;2023-09-12T09:00:04;19.97;99.99
65836;SHT30;52595;51.608;7.216;2023-09-12T09:02:40;20.17;99.99
65836;SHT30;52595;51.608;7.216;2023-09-12T09:05:06;20.33;99.99
65836;SHT30;52595;51.608;7.216;2023-09-12T09:07:35;20.56;99.99
65836;SHT30;52595;51.608;7.216;2023-09-12T09:10:06;20.68;99.99
65836;SHT30;52595;51.608;7.216;2023-09-12T09:12:32;20.52;99.99
65836;SHT30;52595;51.608;7.216;2023-09-12T09:14:58;20.20;99.99
65836;SHT30;52595;51.608;7.216;2023-09-12T09:17:25;20.43;99.99
65836;SHT30;52595;51.608;7.216;2023-09-12T09:19:51;20.55;99.99
65836;SHT30;52595;51.608;7.216;2023-09-12T09:22:16;20.64;99.99
65836;SHT30;52595;51.608;7.216;2023-09-12T09:24:42;20.44;99.99
65836;SHT30;52595;51.608;7.216;2023-09-12T09:27:07;20.44;99.99
65836;SHT30;52595;51.608;7.216;2023-09-12T09:29:45;20.61;99.99
65836;SHT30;52595;51.608;7.216;2023-09-12T09:32:18;20.67;99.99
65836;SHT30;52595;51.608;7.216;2023-09-12T09:34:46;20.92;99.99
65836;SHT30;52595;51.608;7.216;2023-09-12T09:37:12;21.18;99.99
65836;SHT30;52595;51.608;7.216;2023-09-12T09:39:37;21.45;99.99
65836;SHT30;52595;51.608;7.216;2023-09-12T09:42:03;21.61;99.99
65836;SHT30;52595;51.608;7.216;2023-09-12T09:44:28;21.63;99.99
65836;SHT30;52595;51.608;7.216;2023-09-12T09:47:01;21.66;99.99
65836;SHT30;52595;51.608;7.216;2023-09-12T09:49:32;21.89;99.99
65836;SHT30;52595;51.608;7.216;2023-09-12T09:51:59;21.86;99.99
65836;SHT30;52595;51.608;7.216;2023-09-12T09:54:27;22.05;99.99
65836;SHT30;52595;51.608;7.216;2023-09-12T09:56:55;22.15;99.99
65836;SHT30;52595;51.608;7.216;2023-09-12T09:59:22;22.20;99.99
65836;SHT30;52595;51.608;7.216;2023-09-12T10:01:49;22.34;99.99
65836;SHT30;52595;51.608;7.216;2023-09-12T10:04:16;22.24;98.71
65836;SHT30;52595;51.608;7.216;2023-09-12T10:06:46;21.96;97.12
65836;SHT30;52595;51.608;7.216;2023-09-12T10:09:13;22.11;99.35
65836;SHT30;52595;51.608;7.216;2023-09-12T10:11:43;21.87;97.00
65836;SHT30;52595;51.608;7.216;2023-09-12T10:14:09;21.96;98.78
65836;SHT30;52595;51.608;7.216;2023-09-12T10:16:45;21.84;96.21
65836;SHT30;52595;51.608;7.216;2023-09-12T10:19:16;22.28;97.44
65836;SHT30;52595;51.608;7.216;2023-09-12T10:24:36;22.52;97.25
65836;SHT30;52595;51.608;7.216;2023-09-12T10:27:05;22.49;94.60
65836;SHT30;52595;51.608;7.216;2023-09-12T10:29:31;22.47;96.29
65836;SHT30;52595;51.608;7.216;2023-09-12T10:31:56;22.96;92.32
65836;SHT30;52595;51.608;7.216;2023-09-12T10:34:24;24.13;88.13
65836;SHT30;52595;51.608;7.216;2023-09-12T10:36:50;24.76;85.81
65836;SHT30;52595;51.608;7.216;2023-09-12T10:39:19;24.92;81.86
65836;SHT30;52595;51.608;7.216;2023-09-12T10:41:45;24.86;81.77
65836;SHT30;52595;51.608;7.216;2023-09-12T10:44:15;24.99;82.97
65836;SHT30;52595;51.608;7.216;2023-09-12T10:46:41;24.95;82.38
65836;SHT30;52595;51.608;7.216;2023-09-12T10:49:08;25.16;82.24
65836;SHT30;52595;51.608;7.216;2023-09-12T10:51:45;25.40;80.96
65836;SHT30;52595;51.608;7.216;2023-09-12T10:54:15;25.54;79.36
65836;SHT30;52595;51.608;7.216;2023-09-12T10:56:41;25.39;77.08
65836;SHT30;52595;51.608;7.216;2023-09-12T11:01:43;25.84;75.78
65836;SHT30;52595;51.608;7.216;2023-09-12T11:06:45;27.07;72.45
65836;SHT30;52595;51.608;7.216;2023-09-12T11:11:43;27.30;73.52
65836;SHT30;52595;51.608;7.216;2023-09-12T11:14:09;27.68;73.17
65836;SHT30;52595;51.608;7.216;2023-09-12T11:16:35;27.98;70.87
65836;SHT30;52595;51.608;7.216;2023-09-12T11:19:19;28.35;68.29
65836;SHT30;52595;51.608;7.216;2023-09-12T11:21:53;29.97;65.62
65836;SHT30;52595;51.608;7.216;2023-09-12T11:24:20;30.55;64.17
65836;SHT30;52595;51.608;7.216;2023-09-12T11:26:59;29.91;64.98
65836;SHT30;52595;51.608;7.216;2023-09-12T11:29:36;29.77;65.43
65836;SHT30;52595;51.608;7.216;2023-09-12T11:32:02;29.24;65.01
65836;SHT30;52595;51.608;7.216;2023-09-12T11:34:30;27.47;70.59
65836;SHT30;52595;51.608;7.216;2023-09-12T11:36:59;28.00;69.11
65836;SHT30;52595;51.608;7.216;2023-09-12T11:39:28;28.52;69.05
65836;SHT30;52595;51.608;7.216;2023-09-12T11:41:55;29.17;68.13
65836;SHT30;52595;51.608;7.216;2023-09-12T11:44:21;28.90;66.64
65836;SHT30;52595;51.608;7.216;2023-09-12T11:46:48;28.26;69.17
65836;SHT30;52595;51.608;7.216;2023-09-12T11:49:15;28.25;69.57
65836;SHT30;52595;51.608;7.216;2023-09-12T11:51:51;28.35;70.85
65836;SHT30;52595;51.608;7.216;2023-09-12T11:54:19;28.29;71.89
65836;SHT30;52595;51.608;7.216;2023-09-12T11:56:48;27.90;69.53
65836;SHT30;52595;51.608;7.216;2023-09-12T11:59:15;27.80;71.81
65836;SHT30;52595;51.608;7.216;2023-09-12T12:01:44;28.35;70.79
65836;SHT30;52595;51.608;7.216;2023-09-12T12:04:09;28.66;68.97
65836;SHT30;52595;51.608;7.216;2023-09-12T12:06:35;29.43;65.82
65836;SHT30;52595;51.608;7.216;2023-09-12T12:09:01;30.56;65.48
65836;SHT30;52595;51.608;7.216;2023-09-12T12:11:28;31.17;62.59
65836;SHT30;52595;51.608;7.216;2023-09-12T12:13:53;32.43;60.35
65836;SHT30;52595;51.608;7.216;2023-09-12T12:16:19;32.76;59.05
65836;SHT30;52595;51.608;7.216;2023-09-12T12:18:45;33.47;58.58
65836;SHT30;52595;51.608;7.216;2023-09-12T12:21:10;33.24;58.61
65836;SHT30;52595;51.608;7.216;2023-09-12T12:23:38;33.47;56.53
65836;SHT30;52595;51.608;7.216;2023-09-12T12:26:09;33.41;56.30
65836;SHT30;52595;51.608;7.216;2023-09-12T12:28:35;33.27;57.68
65836;SHT30;52595;51.608;7.216;2023-09-12T12:31:01;33.91;56.46
65836;SHT30;52595;51.608;7.216;2023-09-12T12:33:27;34.26;55.72
65836;SHT30;52595;51.608;7.216;2023-09-12T12:36:05;34.32;53.95
65836;SHT30;52595;51.608;7.216;2023-09-12T12:38:38;34.42;54.29
65836;SHT30;52595;51.608;7.216;2023-09-12T12:41:03;34.13;55.35
65836;SHT30;52595;51.608;7.216;2023-09-12T12:43:30;33.98;53.74
65836;SHT30;52595;51.608;7.216;2023-09-12T12:45:57;33.68;55.15
65836;SHT30;52595;51.608;7.216;2023-09-12T12:48:33;33.26;55.38
65836;SHT30;52595;51.608;7.216;2023-09-12T12:50:59;32.96;56.22
65836;SHT30;52595;51.608;7.216;2023-09-12T12:53:41;32.59;58.00
65836;SHT30;52595;51.608;7.216;2023-09-12T12:56:07;32.04;57.46
65836;SHT30;52595;51.608;7.216;2023-09-12T12:58:33;31.60;57.42
65836;SHT30;52595;51.608;7.216;2023-09-12T13:01:00;31.41;59.55
65836;SHT30;52595;51.608;7.216;2023-09-12T13:03:25;31.24;60.77
65836;SHT30;52595;51.608;7.216;2023-09-12T13:05:51;31.86;59.09
65836;SHT30;52595;51.608;7.216;2023-09-12T13:08:16;33.34;57.05
65836;SHT30;52595;51.608;7.216;2023-09-12T13:10:42;33.72;56.59
65836;SHT30;52595;51.608;7.216;2023-09-12T13:13:08;34.52;54.46
65836;SHT30;52595;51.608;7.216;2023-09-12T13:15:33;34.84;53.06
65836;SHT30;52595;51.608;7.216;2023-09-12T13:17:59;34.35;53.31
65836;SHT30;52595;51.608;7.216;2023-09-12T13:20:24;35.20;51.91
65836;SHT30;52595;51.608;7.216;2023-09-12T13:22:50;36.12;51.64
65836;SHT30;52595;51.608;7.216;2023-09-12T13:25:15;36.66;49.50
65836;SHT30;52595;51.608;7.216;2023-09-12T13:27:41;36.51;48.26
65836;SHT30;52595;51.608;7.216;2023-09-12T13:30:06;36.31;49.76
65836;SHT30;52595;51.608;7.216;2023-09-12T13:32:32;36.63;50.35
65836;SHT30;52595;51.608;7.216;2023-09-12T13:34:58;37.70;49.82
65836;SHT30;52595;51.608;7.216;2023-09-12T13:37:24;38.66;47.76
65836;SHT30;52595;51.608;7.216;2023-09-12T13:39:52;38.99;45.93
65836;SHT30;52595;51.608;7.216;2023-09-12T13:42:18;37.50;47.07
65836;SHT30;52595;51.608;7.216;2023-09-12T13:44:49;37.48;47.50
65836;SHT30;52595;51.608;7.216;2023-09-12T13:47:15;38.52;45.68
65836;SHT30;52595;51.608;7.216;2023-09-12T13:49:47;38.68;46.83
65836;SHT30;52595;51.608;7.216;2023-09-12T13:52:13;39.06;45.90
65836;SHT30;52595;51.608;7.216;2023-09-12T13:54:40;38.83;45.86
65836;SHT30;52595;51.608;7.216;2023-09-12T13:57:05;39.74;45.69
65836;SHT30;52595;51.608;7.216;2023-09-12T13:59:31;39.04;45.48
65836;SHT30;52595;51.608;7.216;2023-09-12T14:01:56;38.78;45.77
65836;SHT30;52595;51.608;7.216;2023-09-12T14:04:21;39.12;45.22
65836;SHT30;52595;51.608;7.216;2023-09-12T14:06:47;39.26;44.71
65836;SHT30;52595;51.608;7.216;2023-09-12T14:09:12;39.37;44.20
65836;SHT30;52595;51.608;7.216;2023-09-12T14:11:38;37.02;47.31
65836;SHT30;52595;51.608;7.216;2023-09-12T14:14:04;34.56;51.71
65836;SHT30;52595;51.608;7.216;2023-09-12T14:16:29;32.72;55.36
65836;SHT30;52595;51.608;7.216;2023-09-12T14:18:55;31.42;56.76
65836;SHT30;52595;51.608;7.216;2023-09-12T14:21:21;30.09;59.86
65836;SHT30;52595;51.608;7.216;2023-09-12T14:23:46;29.89;60.62
65836;SHT30;52595;51.608;7.216;2023-09-12T14:26:12;30.42;59.14
65836;SHT30;52595;51.608;7.216;2023-09-12T14:28:38;32.97;54.96
65836;SHT30;52595;51.608;7.216;2023-09-12T14:31:03;35.50;50.75
65836;SHT30;52595;51.608;7.216;2023-09-12T14:33:38;37.30;47.21
65836;SHT30;52595;51.608;7.216;2023-09-12T14:36:04;38.08;46.27
65836;SHT30;52595;51.608;7.216;2023-09-12T14:38:29;38.15;46.29
65836;SHT30;52595;51.608;7.216;2023-09-12T14:40:55;38.41;45.99
65836;SHT30;52595;51.608;7.216;2023-09-12T14:43:20;38.98;44.85
65836;SHT30;52595;51.608;7.216;2023-09-12T14:45:46;38.48;45.31
65836;SHT30;52595;51.608;7.216;2023-09-12T14:48:12;39.00;43.96
65836;SHT30;52595;51.608;7.216;2023-09-12T14:50:37;38.56;44.86
65836;SHT30;52595;51.608;7.216;2023-09-12T14:53:03;38.45;46.00
65836;SHT30;52595;51.608;7.216;2023-09-12T14:55:28;38.56;45.25
65836;SHT30;52595;51.608;7.216;2023-09-12T14:57:54;38.00;46.12
65836;SHT30;52595;51.608;7.216;2023-09-12T15:00:21;36.57;47.98
65836;SHT30;52595;51.608;7.216;2023-09-12T15:02:47;34.33;51.73
65836;SHT30;52595;51.608;7.216;2023-09-12T15:05:13;34.06;52.25
65836;SHT30;52595;51.608;7.216;2023-09-12T15:07:38;32.40;56.05
65836;SHT30;52595;51.608;7.216;2023-09-12T15:10:04;33.03;55.41
65836;SHT30;52595;51.608;7.216;2023-09-12T15:12:30;32.90;56.11
65836;SHT30;52595;51.608;7.216;2023-09-12T15:14:55;33.57;55.23
65836;SHT30;52595;51.608;7.216;2023-09-12T15:17:20;33.47;55.03
65836;SHT30;52595;51.608;7.216;2023-09-12T15:19:46;33.27;55.24
65836;SHT30;52595;51.608;7.216;2023-09-12T15:22:12;34.72;53.56
65836;SHT30;52595;51.608;7.216;2023-09-12T15:24:42;34.55;54.29
65836;SHT30;52595;51.608;7.216;2023-09-12T15:27:07;33.35;55.96
65836;SHT30;52595;51.608;7.216;2023-09-12T15:29:33;34.09;54.17
65836;SHT30;52595;51.608;7.216;2023-09-12T15:31:58;34.57;54.16
65836;SHT30;52595;51.608;7.216;2023-09-12T15:34:25;34.82;54.10
65836;SHT30;52595;51.608;7.216;2023-09-12T15:37:06;34.99;53.66
65836;SHT30;52595;51.608;7.216;2023-09-12T15:39:32;34.70;54.19